createdAt,value
2018-10-12T00:00:39.683Z,14.58
2018-10-12T00:01:39.859Z,14.62
2018-10-12T00:02:40.032Z,14.53
2018-10-12T00:03:40.209Z,14.53
2018-10-12T00:04:40.382Z,14.43
2018-10-12T00:05:40.551Z,14.54
2018-10-12T00:06:40.731Z,14.60
2018-10-12T00:07:40.900Z,14.53
2018-10-12T00:08:41.075Z,14.54
2018-10-12T00:09:41.251Z,14.62
2018-10-12T00:10:41.418Z,14.58
2018-10-12T00:11:41.595Z,14.63
2018-10-12T00:12:41.769Z,14.63
2018-10-12T00:13:41.939Z,14.58
2018-10-12T00:14:42.121Z,14.48
2018-10-12T00:15:42.295Z,14.48
2018-10-12T00:16:42.473Z,14.40
2018-10-12T00:17:42.649Z,14.43
2018-10-12T00:18:42.820Z,14.40
2018-10-12T00:19:42.996Z,14.45
2018-10-12T00:20:43.180Z,14.50
2018-10-12T00:21:43.371Z,14.54
2018-10-12T00:22:43.542Z,14.47
2018-10-12T00:23:43.717Z,14.47
2018-10-12T00:24:43.904Z,14.47
2018-10-12T00:25:44.066Z,14.48
2018-10-12T00:26:44.245Z,14.48
2018-10-12T00:27:44.416Z,14.37
2018-10-12T00:28:44.593Z,14.40
2018-10-12T00:29:44.829Z,14.44
2018-10-12T00:30:44.881Z,14.50
2018-10-12T00:31:45.133Z,14.51
2018-10-12T00:32:45.197Z,14.41
2018-10-12T00:33:45.371Z,14.45
2018-10-12T00:34:45.596Z,14.44
2018-10-12T00:35:45.710Z,14.33
2018-10-12T00:36:45.972Z,14.41
2018-10-12T00:37:46.000Z,14.43
2018-10-12T00:38:46.173Z,14.41
2018-10-12T00:39:46.344Z,14.37
2018-10-12T00:40:46.513Z,14.40
2018-10-12T00:41:46.687Z,14.40
2018-10-12T00:42:46.863Z,14.48
2018-10-12T00:43:47.044Z,14.32
2018-10-12T00:44:47.220Z,14.47
2018-10-12T00:45:47.394Z,14.47
2018-10-12T00:46:47.565Z,14.48
2018-10-12T00:47:47.740Z,14.43
2018-10-12T00:48:47.911Z,14.41
2018-10-12T00:49:48.115Z,14.40
2018-10-12T00:50:48.260Z,14.37
2018-10-12T00:51:48.439Z,14.37
2018-10-12T00:52:48.709Z,14.36
2018-10-12T00:53:48.737Z,14.28
2018-10-12T00:54:48.908Z,14.40
2018-10-12T00:55:49.086Z,14.25
2018-10-12T00:56:49.267Z,14.30
2018-10-12T00:57:49.452Z,14.29
2018-10-12T00:58:49.619Z,14.29
2018-10-12T00:59:49.796Z,14.41
2018-10-12T01:00:49.980Z,14.23
2018-10-12T01:01:50.151Z,14.32
2018-10-12T01:02:50.339Z,14.28
2018-10-12T01:03:50.512Z,14.37
2018-10-12T01:04:50.687Z,14.29
2018-10-12T01:05:50.866Z,14.40
2018-10-12T01:06:51.037Z,14.29
2018-10-12T01:07:51.220Z,14.22
2018-10-12T01:08:51.447Z,14.18
2018-10-12T01:09:51.569Z,14.18
2018-10-12T01:10:51.740Z,14.20
2018-10-12T01:11:51.915Z,14.28
2018-10-12T01:12:52.090Z,14.20
2018-10-12T01:13:52.262Z,14.08
2018-10-12T01:14:52.433Z,14.10
2018-10-12T01:15:52.618Z,14.23
2018-10-12T01:16:52.794Z,14.22
2018-10-12T01:17:52.970Z,14.22
2018-10-12T01:18:53.146Z,14.30
2018-10-12T01:19:53.317Z,14.33
2018-10-12T01:20:53.489Z,14.23
2018-10-12T01:21:53.674Z,14.28
2018-10-12T01:22:53.854Z,14.22
2018-10-12T01:23:54.025Z,14.25
2018-10-12T01:24:54.200Z,14.18
2018-10-12T01:25:54.374Z,14.28
2018-10-12T01:26:54.547Z,14.33
2018-10-12T01:27:54.724Z,14.30
2018-10-12T01:28:54.897Z,14.36
2018-10-12T01:29:55.072Z,14.40
2018-10-12T01:30:55.247Z,14.37
2018-10-12T01:31:55.424Z,14.37
2018-10-12T01:32:55.603Z,14.28
2018-10-12T01:33:55.783Z,14.33
2018-10-12T01:34:55.955Z,14.33
2018-10-12T01:35:56.127Z,14.36
2018-10-12T01:36:56.309Z,14.35
2018-10-12T01:37:56.488Z,14.35
2018-10-12T01:38:56.654Z,14.36
2018-10-12T01:39:56.828Z,14.33
2018-10-12T01:40:56.994Z,14.37
2018-10-12T01:41:57.228Z,14.35
2018-10-12T01:42:57.386Z,14.33
2018-10-12T01:43:57.569Z,14.40
2018-10-12T01:44:57.750Z,14.40
2018-10-12T01:45:57.927Z,14.28
2018-10-12T01:46:58.095Z,14.15
2018-10-12T01:47:58.299Z,14.18
2018-10-12T01:48:58.481Z,14.30
2018-10-12T01:49:58.664Z,14.29
2018-10-12T01:50:58.849Z,14.25
2018-10-12T01:51:59.030Z,14.20
2018-10-12T01:52:59.219Z,14.18
2018-10-12T01:53:59.506Z,14.30
2018-10-12T01:54:59.569Z,14.28
2018-10-12T01:55:59.654Z,14.32
2018-10-12T01:57:02.789Z,14.32
2018-10-12T01:58:00.383Z,14.33
2018-10-12T01:59:00.233Z,14.30
2018-10-12T02:00:00.418Z,14.36
2018-10-12T02:01:00.734Z,14.37
2018-10-12T02:02:00.761Z,14.41
2018-10-12T02:03:00.928Z,14.36
2018-10-12T02:04:01.105Z,14.36
2018-10-12T02:05:01.274Z,14.36
2018-10-12T02:06:01.446Z,14.40
2018-10-12T02:07:01.621Z,14.37
2018-10-12T02:08:01.824Z,14.36
2018-10-12T02:09:02.011Z,14.36
2018-10-12T02:10:02.232Z,14.32
2018-10-12T02:11:02.360Z,14.47
2018-10-12T02:12:02.526Z,14.48
2018-10-12T02:13:02.700Z,14.33
2018-10-12T02:14:02.937Z,14.45
2018-10-12T02:15:02.993Z,14.50
2018-10-12T02:16:03.180Z,14.43
2018-10-12T02:17:03.382Z,14.36
2018-10-12T02:18:03.583Z,14.37
2018-10-12T02:19:03.762Z,14.43
2018-10-12T02:20:03.956Z,14.23
2018-10-12T02:21:04.147Z,14.23
2018-10-12T02:22:04.346Z,14.25
2018-10-12T02:23:04.591Z,14.25
2018-10-12T02:24:04.675Z,14.10
2018-10-12T02:25:04.862Z,14.05
2018-10-12T02:26:05.032Z,14.07
2018-10-12T02:27:05.210Z,13.99
2018-10-12T02:28:05.386Z,13.97
2018-10-12T02:29:05.552Z,13.92
2018-10-12T02:30:05.744Z,13.90
2018-10-12T02:31:05.931Z,13.89
2018-10-12T02:32:06.110Z,13.86
2018-10-12T02:33:06.312Z,13.87
2018-10-12T02:34:06.467Z,13.83
2018-10-12T02:35:06.640Z,13.83
2018-10-12T02:36:06.825Z,13.72
2018-10-12T02:37:07.001Z,13.62
2018-10-12T02:38:07.164Z,13.53
2018-10-12T02:39:07.345Z,13.52
2018-10-12T02:40:07.514Z,13.41
2018-10-12T02:41:07.681Z,13.30
2018-10-12T02:42:07.853Z,13.38
2018-10-12T02:43:08.026Z,13.35
2018-10-12T02:44:08.197Z,13.33
2018-10-12T02:45:08.369Z,13.35
2018-10-12T02:46:08.540Z,13.41
2018-10-12T02:47:08.709Z,13.28
2018-10-12T02:48:08.883Z,13.35
2018-10-12T02:49:09.052Z,13.19
2018-10-12T02:50:09.229Z,13.38
2018-10-12T02:51:09.408Z,13.33
2018-10-12T02:52:09.579Z,13.20
2018-10-12T02:53:09.752Z,13.30
2018-10-12T02:54:09.929Z,13.20
2018-10-12T02:55:10.103Z,13.19
2018-10-12T02:56:10.280Z,13.25
2018-10-12T02:57:10.450Z,13.25
2018-10-12T02:58:10.616Z,13.27
2018-10-12T02:59:10.795Z,13.23
2018-10-12T03:00:10.968Z,13.18
2018-10-12T03:01:11.137Z,13.12
2018-10-12T03:02:11.308Z,13.05
2018-10-12T03:03:11.484Z,13.04
2018-10-12T03:04:11.665Z,13.03
2018-10-12T03:05:11.832Z,13.00
2018-10-12T03:06:12.006Z,12.95
2018-10-12T03:07:12.175Z,13.05
2018-10-12T03:08:12.397Z,12.98
2018-10-12T03:09:12.527Z,13.05
2018-10-12T03:10:12.702Z,12.95
2018-10-12T03:11:12.876Z,12.97
2018-10-12T03:12:13.055Z,13.04
2018-10-12T03:13:13.231Z,13.08
2018-10-12T03:14:13.397Z,13.01
2018-10-12T03:15:13.571Z,12.98
2018-10-12T03:16:13.736Z,12.97
2018-10-12T03:17:13.909Z,12.97
2018-10-12T03:18:14.084Z,13.01
2018-10-12T03:19:14.251Z,13.00
2018-10-12T03:20:14.433Z,13.04
2018-10-12T03:21:14.606Z,12.93
2018-10-12T03:22:14.778Z,12.86
2018-10-12T03:23:14.946Z,13.00
2018-10-12T03:24:15.120Z,12.94
2018-10-12T03:25:15.291Z,12.97
2018-10-12T03:26:15.460Z,12.90
2018-10-12T03:27:15.643Z,12.93
2018-10-12T03:28:15.814Z,12.83
2018-10-12T03:29:15.987Z,12.83
2018-10-12T03:30:16.173Z,12.80
2018-10-12T03:31:16.334Z,12.91
2018-10-12T03:32:16.507Z,12.85
2018-10-12T03:33:16.676Z,12.85
2018-10-12T03:34:16.844Z,12.87
2018-10-12T03:35:17.013Z,12.87
2018-10-12T03:36:17.182Z,12.82
2018-10-12T03:37:17.430Z,12.70
2018-10-12T03:38:17.527Z,12.80
2018-10-12T03:39:17.700Z,12.85
2018-10-12T03:40:17.875Z,12.80
2018-10-12T03:41:18.045Z,12.82
2018-10-12T03:42:18.234Z,12.70
2018-10-12T03:43:18.402Z,12.65
2018-10-12T03:44:18.597Z,12.68
2018-10-12T03:45:18.740Z,12.61
2018-10-12T03:46:18.912Z,12.65
2018-10-12T03:47:19.088Z,12.70
2018-10-12T03:48:19.259Z,12.67
2018-10-12T03:49:19.430Z,12.76
2018-10-12T03:50:19.615Z,12.64
2018-10-12T03:51:19.777Z,12.64
2018-10-12T03:52:19.950Z,12.57
2018-10-12T03:53:20.121Z,12.60
2018-10-12T03:54:20.296Z,12.47
2018-10-12T03:55:20.466Z,12.50
2018-10-12T03:56:20.653Z,12.46
2018-10-12T03:57:20.822Z,12.42
2018-10-12T03:58:20.999Z,12.42
2018-10-12T03:59:22.929Z,12.50
2018-10-12T04:00:21.359Z,12.50
2018-10-12T04:01:21.533Z,12.50
2018-10-12T04:02:21.704Z,12.45
2018-10-12T04:03:21.875Z,12.43
2018-10-12T04:04:22.048Z,12.45
2018-10-12T04:05:22.226Z,12.45
2018-10-12T04:06:22.393Z,12.39
2018-10-12T04:07:22.566Z,12.49
2018-10-12T04:08:22.735Z,12.49
2018-10-12T04:09:22.911Z,12.50
2018-10-12T04:10:23.209Z,12.55
2018-10-12T04:11:23.195Z,12.47
2018-10-12T04:12:23.370Z,12.42
2018-10-12T04:13:23.594Z,12.37
2018-10-12T04:14:23.660Z,12.36
2018-10-12T04:15:23.903Z,12.39
2018-10-12T04:16:23.936Z,12.37
2018-10-12T04:17:24.110Z,12.35
2018-10-12T04:18:24.282Z,12.42
2018-10-12T04:19:24.450Z,12.35
2018-10-12T04:20:24.630Z,12.24
2018-10-12T04:21:25.110Z,12.13
2018-10-12T04:22:24.959Z,12.35
2018-10-12T04:23:25.118Z,12.31
2018-10-12T04:24:25.306Z,12.21
2018-10-12T04:25:25.480Z,12.17
2018-10-12T04:26:25.659Z,12.17
2018-10-12T04:27:25.828Z,12.29
2018-10-12T04:28:26.052Z,12.21
2018-10-12T04:29:26.179Z,12.13
2018-10-12T04:30:26.358Z,12.21
2018-10-12T04:31:26.533Z,12.21
2018-10-12T04:32:26.705Z,12.18
2018-10-12T04:33:26.883Z,12.20
2018-10-12T04:34:27.051Z,12.21
2018-10-12T04:35:27.218Z,12.22
2018-10-12T04:36:27.406Z,12.20
2018-10-12T04:37:27.557Z,12.18
2018-10-12T04:38:27.734Z,12.21
2018-10-12T04:39:27.913Z,12.22
2018-10-12T04:40:28.087Z,12.17
2018-10-12T04:41:28.264Z,12.20
2018-10-12T04:42:28.433Z,12.15
2018-10-12T04:43:28.602Z,12.03
2018-10-12T04:44:28.780Z,12.09
2018-10-12T04:45:29.008Z,12.04
2018-10-12T04:46:29.144Z,12.02
2018-10-12T04:47:29.313Z,12.03
2018-10-12T04:48:29.497Z,12.04
2018-10-12T04:49:29.668Z,12.04
2018-10-12T04:50:29.844Z,12.07
2018-10-12T04:51:30.024Z,12.12
2018-10-12T04:52:30.273Z,12.10
2018-10-12T04:53:30.452Z,12.00
2018-10-12T04:54:30.547Z,12.06
2018-10-12T04:55:30.737Z,12.04
2018-10-12T04:56:30.914Z,12.09
2018-10-12T04:57:31.084Z,12.07
2018-10-12T04:58:31.263Z,12.06
2018-10-12T04:59:31.439Z,12.07
2018-10-12T05:00:31.626Z,12.09
2018-10-12T05:01:31.794Z,12.09
2018-10-12T05:02:31.974Z,12.03
2018-10-12T05:03:32.197Z,11.88
2018-10-12T05:04:32.262Z,11.84
2018-10-12T05:05:32.447Z,11.88
2018-10-12T05:06:32.634Z,11.91
2018-10-12T05:07:32.885Z,11.94
2018-10-12T05:08:32.995Z,11.99
2018-10-12T05:09:34.350Z,11.94
2018-10-12T05:10:34.131Z,11.94
2018-10-12T05:11:34.718Z,12.10
2018-10-12T05:12:33.927Z,11.99
2018-10-12T05:13:36.589Z,12.04
2018-10-12T05:14:33.869Z,12.04
2018-10-12T05:15:34.805Z,11.97
2018-10-12T05:16:34.243Z,12.02
2018-10-12T05:17:34.430Z,12.03
2018-10-12T05:18:34.811Z,12.06
2018-10-12T05:19:35.002Z,12.12
2018-10-12T05:20:36.982Z,12.07
2018-10-12T05:21:37.453Z,11.97
2018-10-12T05:22:35.145Z,11.99
2018-10-12T05:23:35.313Z,12.09
2018-10-12T05:24:35.495Z,12.07
2018-10-12T05:25:35.661Z,11.95
2018-10-12T05:26:35.833Z,11.99
2018-10-12T05:27:36.004Z,12.10
2018-10-12T05:28:36.177Z,12.10
2018-10-12T05:29:36.345Z,12.07
2018-10-12T05:30:36.520Z,12.07
2018-10-12T05:31:36.701Z,12.06
2018-10-12T05:32:36.870Z,12.13
2018-10-12T05:33:37.049Z,12.09
2018-10-12T05:34:37.224Z,12.15
2018-10-12T05:35:37.395Z,12.15
2018-10-12T05:36:37.573Z,12.15
2018-10-12T05:37:37.744Z,12.17
2018-10-12T05:38:37.913Z,12.18
2018-10-12T05:39:38.085Z,12.22
2018-10-12T05:40:38.265Z,12.18
2018-10-12T05:41:39.388Z,12.22
2018-10-12T05:42:38.622Z,12.21
2018-10-12T05:43:38.856Z,12.20
2018-10-12T05:44:38.963Z,12.21
2018-10-12T05:45:39.136Z,12.18
2018-10-12T05:46:39.307Z,12.24
2018-10-12T05:47:39.480Z,12.21
2018-10-12T05:48:39.697Z,12.27
2018-10-12T05:49:41.924Z,12.15
2018-10-12T05:50:43.158Z,12.18
2018-10-12T05:51:43.268Z,12.18
2018-10-12T05:52:41.873Z,12.20
2018-10-12T05:53:40.458Z,12.18
2018-10-12T05:54:40.642Z,12.20
2018-10-12T05:55:40.824Z,12.21
2018-10-12T05:56:40.991Z,12.18
2018-10-12T05:57:41.155Z,12.17
2018-10-12T05:58:41.340Z,12.12
2018-10-12T05:59:41.505Z,12.06
2018-10-12T06:00:41.687Z,11.95
2018-10-12T06:01:41.852Z,11.94
2018-10-12T06:02:42.029Z,11.94
2018-10-12T06:03:42.191Z,11.87
2018-10-12T06:04:47.334Z,11.91
2018-10-12T06:05:42.572Z,12.03
2018-10-12T06:06:42.747Z,11.97
2018-10-12T06:07:42.923Z,12.06
2018-10-12T06:08:43.102Z,11.94
2018-10-12T06:09:43.366Z,12.10
2018-10-12T06:10:43.451Z,12.06
2018-10-12T06:11:43.620Z,12.09
2018-10-12T06:12:43.798Z,12.04
2018-10-12T06:13:43.970Z,12.07
2018-10-12T06:14:44.149Z,12.07
2018-10-12T06:15:44.449Z,12.00
2018-10-12T06:16:44.500Z,12.15
2018-10-12T06:17:44.676Z,12.21
2018-10-12T06:18:44.842Z,12.17
2018-10-12T06:19:45.017Z,12.15
2018-10-12T06:20:45.349Z,12.18
2018-10-12T06:21:45.514Z,12.20
2018-10-12T06:22:45.574Z,12.15
2018-10-12T06:23:45.743Z,12.20
2018-10-12T06:24:46.277Z,12.25
2018-10-12T06:25:46.067Z,12.21
2018-10-12T06:26:46.248Z,12.21
2018-10-12T06:27:46.407Z,12.22
2018-10-12T06:28:46.574Z,12.32
2018-10-12T06:29:46.753Z,12.22
2018-10-12T06:30:46.935Z,12.36
2018-10-12T06:31:47.110Z,12.36
2018-10-12T06:32:47.297Z,12.37
2018-10-12T06:33:47.453Z,12.29
2018-10-12T06:34:47.626Z,12.39
2018-10-12T06:35:47.807Z,12.42
2018-10-12T06:36:47.984Z,12.36
2018-10-12T06:37:48.162Z,12.57
2018-10-12T06:38:48.334Z,12.64
2018-10-12T06:39:48.515Z,12.62
2018-10-12T06:40:48.706Z,12.68
2018-10-12T06:41:49.172Z,12.62
2018-10-12T06:42:49.023Z,12.58
2018-10-12T06:43:49.196Z,12.76
2018-10-12T06:44:49.364Z,12.80
2018-10-12T06:45:49.607Z,12.82
2018-10-12T06:46:49.875Z,13.00
2018-10-12T06:47:49.917Z,12.91
2018-10-12T06:48:50.093Z,12.95
2018-10-12T06:49:50.298Z,13.08
2018-10-12T06:50:50.477Z,12.95
2018-10-12T06:51:50.666Z,13.19
2018-10-12T06:52:50.843Z,13.44
2018-10-12T06:53:51.073Z,13.85
2018-10-12T06:54:51.189Z,14.22
2018-10-12T06:55:51.363Z,14.66
2018-10-12T06:56:51.573Z,15.27
2018-10-12T06:57:54.970Z,15.70
2018-10-12T06:58:51.735Z,16.49
2018-10-12T06:59:51.977Z,17.31
2018-10-12T07:00:52.086Z,17.89
2018-10-12T07:01:52.271Z,18.34
2018-10-12T07:02:52.442Z,18.89
2018-10-12T07:03:52.631Z,19.34
2018-10-12T07:04:52.810Z,19.67
2018-10-12T07:05:52.992Z,19.81
2018-10-12T07:06:53.168Z,19.89
2018-10-12T07:07:53.345Z,20.10
2018-10-12T07:08:53.762Z,20.00
2018-10-12T07:09:53.975Z,20.25
2018-10-12T07:10:53.810Z,20.32
2018-10-12T07:11:54.004Z,20.36
2018-10-12T07:12:54.196Z,20.48
2018-10-12T07:13:54.577Z,20.43
2018-10-12T07:14:54.583Z,20.24
2018-10-12T07:15:54.789Z,20.43
2018-10-12T07:16:54.951Z,20.55
2018-10-12T07:17:55.126Z,20.59
2018-10-12T07:18:55.305Z,20.93
2018-10-12T07:19:55.482Z,21.27
2018-10-12T07:20:55.657Z,21.30
2018-10-12T07:21:55.836Z,21.61
2018-10-12T07:22:56.038Z,21.80
2018-10-12T07:23:56.241Z,22.08
2018-10-12T07:24:56.437Z,22.28
2018-10-12T07:25:56.630Z,22.35
2018-10-12T07:26:56.800Z,22.26
2018-10-12T07:27:57.041Z,22.55
2018-10-12T07:28:57.186Z,22.75
2018-10-12T07:29:57.387Z,22.85
2018-10-12T07:30:58.018Z,22.87
2018-10-12T07:31:58.003Z,22.25
2018-10-12T07:32:58.053Z,22.20
2018-10-12T07:33:58.118Z,22.13
2018-10-12T07:34:58.547Z,21.95
2018-10-12T07:35:58.708Z,22.06
2018-10-12T07:36:58.646Z,21.83
2018-10-12T07:37:59.345Z,21.89
2018-10-12T07:38:59.219Z,21.70
2018-10-12T07:39:59.214Z,21.45
2018-10-12T07:40:59.409Z,21.25
2018-10-12T07:41:59.620Z,21.07
2018-10-12T07:42:59.814Z,20.99
2018-10-12T07:44:00.209Z,20.93
2018-10-12T07:45:00.137Z,20.67
2018-10-12T07:46:00.322Z,20.47
2018-10-12T07:47:00.501Z,20.25
2018-10-12T07:48:00.712Z,20.06
2018-10-12T07:49:01.246Z,19.82
2018-10-12T07:50:01.484Z,19.52
2018-10-12T07:51:01.292Z,19.29
2018-10-12T07:52:01.470Z,18.99
2018-10-12T07:53:01.923Z,18.88
2018-10-12T07:54:03.219Z,18.88
2018-10-12T07:55:02.359Z,18.96
2018-10-12T07:56:02.941Z,19.07
2018-10-12T07:57:02.593Z,19.14
2018-10-12T07:58:03.749Z,19.00
2018-10-12T07:59:03.378Z,18.68
2018-10-12T08:00:04.729Z,18.66
2018-10-12T08:01:03.886Z,18.77
2018-10-12T08:02:03.591Z,18.74
2018-10-12T08:03:04.760Z,18.78
2018-10-12T08:04:04.723Z,18.84
2018-10-12T08:05:05.146Z,18.81
2018-10-12T08:06:05.254Z,18.84
2018-10-12T08:07:04.596Z,18.83
2018-10-12T08:08:04.910Z,18.88
2018-10-12T08:09:05.766Z,18.80
2018-10-12T08:10:05.690Z,18.74
2018-10-12T08:11:05.252Z,18.62
2018-10-12T08:12:05.313Z,18.53
2018-10-12T08:13:06.104Z,18.45
2018-10-12T08:14:06.731Z,18.23
2018-10-12T08:15:06.003Z,18.23
2018-10-12T08:16:07.081Z,18.22
2018-10-12T08:17:06.094Z,18.16
2018-10-12T08:18:06.477Z,18.11
2018-10-12T08:19:06.870Z,18.01
2018-10-12T08:20:08.647Z,17.82
2018-10-12T08:21:07.287Z,17.86
2018-10-12T08:22:08.272Z,17.72
2018-10-12T08:23:07.336Z,17.67
2018-10-12T08:24:07.340Z,17.65
2018-10-12T08:25:08.239Z,17.59
2018-10-12T08:26:09.206Z,17.78
2018-10-12T08:27:08.780Z,17.68
2018-10-12T08:28:08.914Z,17.74
2018-10-12T08:29:08.802Z,17.86
2018-10-12T08:30:09.531Z,17.82
2018-10-12T08:31:08.743Z,17.98
2018-10-12T08:32:09.458Z,18.25
2018-10-12T08:33:08.751Z,18.40
2018-10-12T08:34:09.896Z,18.66
2018-10-12T08:35:09.868Z,18.65
2018-10-12T08:36:10.085Z,18.59
2018-10-12T08:37:10.072Z,18.44
2018-10-12T08:38:09.115Z,18.58
2018-10-12T08:39:10.151Z,18.56
2018-10-12T08:40:10.471Z,18.49
2018-10-12T08:41:10.468Z,18.49
2018-10-12T08:42:10.322Z,18.52
2018-10-12T08:43:10.576Z,18.52
2018-10-12T08:44:10.416Z,18.50
2018-10-12T08:45:11.040Z,18.56
2018-10-12T08:46:11.143Z,18.81
2018-10-12T08:47:10.991Z,19.04
2018-10-12T08:48:11.206Z,19.30
2018-10-12T08:49:10.505Z,19.85
2018-10-12T08:50:11.626Z,20.09
2018-10-12T08:51:11.345Z,20.43
2018-10-12T08:52:11.999Z,20.85
2018-10-12T08:53:12.475Z,21.06
2018-10-12T08:54:11.971Z,21.40
2018-10-12T08:55:12.365Z,21.79
2018-10-12T08:56:13.185Z,22.08
2018-10-12T08:57:12.025Z,22.26
2018-10-12T08:58:12.853Z,22.75
2018-10-12T08:59:12.843Z,22.99
2018-10-12T09:00:13.007Z,23.34
2018-10-12T09:01:13.746Z,23.71
2018-10-12T09:02:13.861Z,23.95
2018-10-12T09:03:13.559Z,23.99
2018-10-12T09:04:13.413Z,24.32
2018-10-12T09:05:14.564Z,24.55
2018-10-12T09:06:14.518Z,24.81
2018-10-12T09:07:14.949Z,25.25
2018-10-12T09:08:14.577Z,25.31
2018-10-12T09:09:14.039Z,25.53
2018-10-12T09:10:15.710Z,25.65
2018-10-12T09:11:14.928Z,25.06
2018-10-12T09:12:15.562Z,25.54
2018-10-12T09:13:15.542Z,26.03
2018-10-12T09:14:15.866Z,26.23
2018-10-12T09:15:16.115Z,26.37
2018-10-12T09:16:15.987Z,26.70
2018-10-12T09:17:16.107Z,26.99
2018-10-12T09:18:16.659Z,27.17
2018-10-12T09:19:16.691Z,27.54
2018-10-12T09:20:16.773Z,27.80
2018-10-12T09:21:16.531Z,28.00
2018-10-12T09:22:16.671Z,28.11
2018-10-12T09:23:17.222Z,28.20
2018-10-12T09:24:16.688Z,28.52
2018-10-12T09:25:17.831Z,28.45
2018-10-12T09:26:17.421Z,28.67
2018-10-12T09:27:17.398Z,28.85
2018-10-12T09:28:17.034Z,28.98
2018-10-12T09:29:17.088Z,29.07
2018-10-12T09:30:17.251Z,29.38
2018-10-12T09:31:17.411Z,29.47
2018-10-12T09:32:17.680Z,29.45
2018-10-12T09:33:17.593Z,29.63
2018-10-12T09:34:17.778Z,29.78
2018-10-12T09:35:17.967Z,29.94
2018-10-12T09:36:18.158Z,29.97
2018-10-12T09:37:18.349Z,29.95
2018-10-12T09:38:18.523Z,30.12
2018-10-12T09:39:18.704Z,29.93
2018-10-12T09:40:18.879Z,30.05
2018-10-12T09:41:19.055Z,30.34
2018-10-12T09:42:19.230Z,30.34
2018-10-12T09:43:19.474Z,30.55
2018-10-12T09:44:19.623Z,30.48
2018-10-12T09:45:19.702Z,30.80
2018-10-12T09:46:20.436Z,30.75
2018-10-12T09:47:21.165Z,30.83
2018-10-12T09:48:21.529Z,30.83
2018-10-12T09:49:22.594Z,30.91
2018-10-12T09:50:22.485Z,30.70
2018-10-12T09:51:22.849Z,30.75
2018-10-12T09:52:21.773Z,30.65
2018-10-12T09:53:22.293Z,30.43
2018-10-12T09:54:23.385Z,30.51
2018-10-12T09:55:22.118Z,30.37
2018-10-12T09:56:22.738Z,30.32
2018-10-12T09:57:21.901Z,30.12
2018-10-12T09:58:24.277Z,30.08
2018-10-12T09:59:23.216Z,29.93
2018-10-12T10:00:23.840Z,29.88
2018-10-12T10:01:23.851Z,30.05
2018-10-12T10:02:24.245Z,30.10
2018-10-12T10:03:25.099Z,30.25
2018-10-12T10:04:23.902Z,30.23
2018-10-12T10:05:25.277Z,30.16
2018-10-12T10:06:24.650Z,30.23
2018-10-12T10:07:23.377Z,30.13
2018-10-12T10:08:24.085Z,30.35
2018-10-12T10:09:24.339Z,30.59
2018-10-12T10:10:25.398Z,30.73
2018-10-12T10:11:25.039Z,30.48
2018-10-12T10:12:24.769Z,30.57
2018-10-12T10:13:25.273Z,30.83
2018-10-12T10:14:26.301Z,30.81
2018-10-12T10:15:27.025Z,30.96
2018-10-12T10:16:27.029Z,31.05
2018-10-12T10:17:26.321Z,30.92
2018-10-12T10:18:27.863Z,31.10
2018-10-12T10:19:25.707Z,31.10
2018-10-12T10:20:28.089Z,31.21
2018-10-12T10:21:28.404Z,31.27
2018-10-12T10:22:27.561Z,31.43
2018-10-12T10:23:28.624Z,31.56
2018-10-12T10:24:29.869Z,31.65
2018-10-12T10:25:28.094Z,31.85
2018-10-12T10:26:29.780Z,31.94
2018-10-12T10:27:28.268Z,32.18
2018-10-12T10:28:28.056Z,32.22
2018-10-12T10:29:30.115Z,32.48
2018-10-12T10:30:29.400Z,32.52
2018-10-12T10:31:30.301Z,32.43
2018-10-12T10:32:28.615Z,32.70
2018-10-12T10:33:28.939Z,32.49
2018-10-12T10:34:30.376Z,32.60
2018-10-12T10:35:31.601Z,32.56
2018-10-12T10:36:31.870Z,32.70
2018-10-12T10:37:31.816Z,32.38
2018-10-12T10:38:28.898Z,32.55
2018-10-12T10:39:29.093Z,32.87
2018-10-12T10:40:29.278Z,33.17
2018-10-12T10:41:29.470Z,33.40
2018-10-12T10:42:29.660Z,33.53
2018-10-12T10:43:30.020Z,33.55
2018-10-12T10:44:30.000Z,33.74
2018-10-12T10:45:30.190Z,33.87
2018-10-12T10:46:30.377Z,33.95
2018-10-12T10:47:30.566Z,34.03
2018-10-12T10:48:30.751Z,34.23
2018-10-12T10:49:30.936Z,34.50
2018-10-12T10:50:31.132Z,34.58
2018-10-12T10:51:31.330Z,34.64
2018-10-12T10:52:31.519Z,34.58
2018-10-12T10:53:31.772Z,34.70
2018-10-12T10:54:31.887Z,34.77
2018-10-12T10:55:32.081Z,34.85
2018-10-12T10:56:32.280Z,34.78
2018-10-12T10:57:32.459Z,34.60
2018-10-12T10:58:32.648Z,34.81
2018-10-12T10:59:32.841Z,34.95
2018-10-12T11:00:33.024Z,34.51
2018-10-12T11:01:33.209Z,34.75
2018-10-12T11:02:33.479Z,34.71
2018-10-12T11:03:33.598Z,34.80
2018-10-12T11:04:33.778Z,35.00
2018-10-12T11:05:33.994Z,35.15
2018-10-12T11:06:34.171Z,35.34
2018-10-12T11:07:34.369Z,35.30
2018-10-12T11:08:35.202Z,35.31
2018-10-12T11:09:35.062Z,35.45
2018-10-12T11:10:35.166Z,35.63
2018-10-12T11:11:36.553Z,35.66
2018-10-12T11:12:35.328Z,35.79
2018-10-12T11:13:35.711Z,35.78
2018-10-12T11:14:35.780Z,35.79
2018-10-12T11:15:35.983Z,35.89
2018-10-12T11:16:36.103Z,35.98
2018-10-12T11:17:36.060Z,35.70
2018-10-12T11:18:36.253Z,36.00
2018-10-12T11:19:36.423Z,35.78
2018-10-12T11:20:36.512Z,35.93
2018-10-12T11:21:36.704Z,36.05
2018-10-12T11:22:36.894Z,36.09
2018-10-12T11:23:37.105Z,36.01
2018-10-12T11:24:37.368Z,35.90
2018-10-12T11:25:37.486Z,35.88
2018-10-12T11:26:37.723Z,36.17
2018-10-12T11:27:37.877Z,36.23
2018-10-12T11:28:38.132Z,36.20
2018-10-12T11:29:38.218Z,36.27
2018-10-12T11:30:38.397Z,36.20
2018-10-12T11:31:38.632Z,36.05
2018-10-12T11:32:38.751Z,36.14
2018-10-12T11:33:38.898Z,36.21
2018-10-12T11:34:39.800Z,36.54
2018-10-12T11:35:39.247Z,36.52
2018-10-12T11:36:39.436Z,36.18
2018-10-12T11:37:39.618Z,36.42
2018-10-12T11:38:39.817Z,36.30
2018-10-12T11:39:40.013Z,36.17
2018-10-12T11:40:40.200Z,36.16
2018-10-12T11:41:40.384Z,36.14
2018-10-12T11:42:40.613Z,36.14
2018-10-12T11:43:40.895Z,36.16
2018-10-12T11:44:40.895Z,36.54
2018-10-12T11:45:41.090Z,36.58
2018-10-12T11:46:41.273Z,36.47
2018-10-12T11:47:41.458Z,36.62
2018-10-12T11:48:41.648Z,36.58
2018-10-12T11:49:41.837Z,36.36
2018-10-12T11:50:42.032Z,36.21
2018-10-12T11:51:42.223Z,36.37
2018-10-12T11:52:42.423Z,36.28
2018-10-12T11:53:42.599Z,36.47
2018-10-12T11:54:42.784Z,36.30
2018-10-12T11:55:42.970Z,36.31
2018-10-12T11:56:43.155Z,36.25
2018-10-12T11:57:43.344Z,36.27
2018-10-12T11:58:43.540Z,35.86
2018-10-12T11:59:43.729Z,35.78
2018-10-12T12:00:43.917Z,35.68
2018-10-12T12:01:44.108Z,35.80
2018-10-12T12:02:44.299Z,35.92
2018-10-12T12:03:44.484Z,35.82
2018-10-12T12:04:44.670Z,35.61
2018-10-12T12:05:44.869Z,35.36
2018-10-12T12:06:45.056Z,35.29
2018-10-12T12:07:45.241Z,35.19
2018-10-12T12:08:45.426Z,35.18
2018-10-12T12:09:45.621Z,35.29
2018-10-12T12:10:45.823Z,35.29
2018-10-12T12:11:46.015Z,35.34
2018-10-12T12:12:46.208Z,35.37
2018-10-12T12:13:46.484Z,35.34
2018-10-12T12:14:46.642Z,35.30
2018-10-12T12:15:46.852Z,35.14
2018-10-12T12:16:47.064Z,35.14
2018-10-12T12:17:48.949Z,35.34
2018-10-12T12:18:47.686Z,35.37
2018-10-12T12:19:47.956Z,35.30
2018-10-12T12:20:47.870Z,35.29
2018-10-12T12:21:48.061Z,35.24
2018-10-12T12:22:48.284Z,35.33
2018-10-12T12:23:48.461Z,35.24
2018-10-12T12:24:48.654Z,35.05
2018-10-12T12:25:48.845Z,34.81
2018-10-12T12:26:49.048Z,34.55
2018-10-12T12:27:49.235Z,34.03
2018-10-12T12:28:49.428Z,33.99
2018-10-12T12:29:49.629Z,33.77
2018-10-12T12:30:49.831Z,33.53
2018-10-12T12:31:50.033Z,33.09
2018-10-12T12:32:50.232Z,32.90
2018-10-12T12:33:50.430Z,32.71
2018-10-12T12:34:50.746Z,32.43
2018-10-12T12:35:51.236Z,31.96
2018-10-12T12:36:51.888Z,31.61
2018-10-12T12:37:51.123Z,31.21
2018-10-12T12:38:51.305Z,30.96
2018-10-12T12:39:51.961Z,30.65
2018-10-12T12:40:51.643Z,30.46
2018-10-12T12:41:51.829Z,30.30
2018-10-12T12:42:52.012Z,30.02
2018-10-12T12:43:52.196Z,29.79
2018-10-12T12:44:52.388Z,29.56
2018-10-12T12:45:53.902Z,29.45
2018-10-12T12:46:53.941Z,29.41
2018-10-12T12:47:56.027Z,29.31
2018-10-12T12:48:54.524Z,29.20
2018-10-12T12:49:57.148Z,29.20
2018-10-12T12:50:56.463Z,29.01
2018-10-12T12:51:55.354Z,28.85
2018-10-12T12:52:55.309Z,28.54
2018-10-12T12:53:55.060Z,28.52
2018-10-12T12:54:55.717Z,28.41